Latest Observation

42 Stations

15 Minute Data | America/Los_Angeles
as of 9/2/26 9:32 AM PDT
Station Date Time Temp (°F) RH (%) Dew Pt (°F) Wind Spd (mph) Wind Dir (°) Wind Gust (mph) Latest Rain (In) Daily Rain (In) Daily Min Temp (°F) Daily Max Temp (°F) Daily Max Wind (mph)
Elk Mt. Farm 8/13/26 1500 85.6   7.4 - - - - - - - 51.4   1.1 85.6   7.4 -
Upper Lake 9/2/26 0930 58.6   1.3 90   16 55.8   4.0 0.7 S | 172 2.3   7.3 0.00 0.01 49.9   5.9 59.2   1.9 3.5   8.3
Scotts Valley 9/2/26 0930 58.1   2.3 95   25 56.6   6.2 0.5 ENE | 66 2.6   2.7 0.00 0.02 52.1   5.0 58.4   2.3 2.7   5.3
Scotts Valley-South (Bella Vista) 9/2/26 0930 57.8   1.8 90   24 55.0   6.8 0.9 ESE | 120 3.6   2.5 0.00 0.05 52.8   3.5 58.1   2.0 3.6   3.7
Kelseyville 9/2/26 0930 57.3   2.4 97   27 56.5   6.8 0.5 NE | 56 2.4   4.8 0.00 0.02 54.0   6.2 57.7   2.1 8.6   0.9
Kelseyville Remote 9/2/26 0930 59.4   0.4 86   22 55.2   7.6 - - - 0.00 0.01 54.5   6.3 59.4   0.8 -
Kelseyville (Clark Drive) 9/2/26 0930 59.1   1.3 - - - - - 0.00 0.00 53.4   8.2 59.5   1.2 -
Kelsey Bench (Oaklea) 9/2/26 0930 57.3   1.5 91   26 54.8   7.7 1.0 NNE | 33 2.5   6.3 0.00 0.02 52.7   3.6 57.7   1.4 5.3   3.4
Smith Lane (Kelseyville-South) 9/2/26 0930 59.3   1.9 91   27 56.8   7.7 0.0 N | 0 0.0   7.1 0.00 0.02 53.7   9.5 59.3   2.0 8.2   1.1
Bell Hill-West 9/2/26 0930 57.4   2.2 100   25 57.5   5.5 0.5 NNW | 347 3.1   3.0 0.00 0.03 54.3   6.3 57.8   2.1 6.8   3.7
High Valley Ridgeline (Brassfield) 9/2/26 0930 55.8   1.0 94   16 54.1   6.2 2.5 WSW | 241 3.9   9.8 0.00 0.01 51.4   0.5 56.1   1.1 12.8   11.0
Wight Way (Adobe Creek) 9/2/26 0900 56.8   2.8 95   29 55.4   7.4 0.3 NE | 34 2.7   7.5 0.00 0.04 53.7   7.6 56.8   2.8 4.7   5.5
Ridgeline Top (Brassfield) 9/2/26 0915 55.6   0.9 - - - - - - - 51.2   0.4 57.3   2.1 -
Ridgeline Low (Brassfield) 9/2/26 0930 57.7   1.0 - - - - - - - 52.2   1.2 58.2   1.0 -
Long Valley (Shannon) 6/29/26 1400 84.9   4.6 25   1 44.9   3.2 2.9 ENE | 75 10.2   0.4 0.00 0.00 46.4   0.4 86.9   6.5 13.7   1.8
High Valley Winery 9/2/26 0930 58.7   1.0 85   15 54.1   6.3 1.1 NNE | 19 2.8   8.0 0.00 0.00 53.0   0.3 59.5   1.3 12.4   6.4
Round Mtn Rd. 9/2/26 0445 52.1   0.5 - - - - - - - 51.7   0.3 55.2   1.3 -
Circle O 9/2/26 0930 55.6   0.4 - - - - - - - 50.3   0.3 56.1   0.1 -
Robertsbridge Vineyards 9/2/26 0930 58.5   0.5 90   25 55.6   8.2 - - - - - 50.5   5.7 58.8   0.3 -
Urgency Vineyard 9/2/26 0930 58.0   1.2 84   22 53.3   7.0 1.1 NNE | 20 3.4   6.8 0.00 0.01 52.9   1.8 58.1   1.1 6.4   4.5
Red Hills (Beckstoffer) 9/2/26 0930 58.6   0.5 89   22 55.4   8.2 - - - 0.00 0.01 53.1   1.4 58.6   0.1 -
Winters (Shannon) 9/2/26 0930 58.0   0.6 86   21 53.7   8.0 1.1 ENE | 66 5.1   5.7 0.00 0.00 50.5   0.6 58.1   0.4 8.3   5.7
Secret Pond (Shannon) 9/2/26 0930 56.5   0.1 89   23 53.2   8.3 1.9 SE | 131 4.7   8.6 0.00 0.00 50.4   2.0 56.8   0.7 6.9   12.9
Rolling Knolls (Shannon) 9/2/26 0930 60.1   1.1 79   22 53.7   7.5 2.1 SE | 127 5.7   6.9 0.00 0.00 50.0   3.7 60.2   1.1 5.7   8.0
Lower Lake 9/2/26 0930 58.7   2.7 87   27 54.9   7.6 4.7 E | 90 10.0   3.7 0.00 0.00 52.3   0.9 58.7   3.1 10.0   6.3
Adamson Ranch 9/2/26 0930 60.4   1.2 88   27 56.8   8.7 5.1 SSE | 165 9.9   3.7 0.00 0.00 49.7   5.6 60.6   0.9 9.9   2.4
Middletown (Diamond D) 9/2/26 0930 59.0   2.9 94   25 57.4   5.5 0.3 N | 355 2.1   3.4 0.01 0.07 55.3   13.7 59.9   3.0 12.1   6.6
Middletown-West (Domaine Helena) 9/2/26 0930 59.3   3.1 93   31 57.3   8.1 1.0 NNW | 332 3.0   3.0 0.00 0.11 53.7   12.6 59.5   3.8 9.5   0.8
Middletown-South 9/2/26 0930 58.5   3.7 96   35 57.5   8.9 0.6 NW | 305 3.0   2.3 0.00 0.21 54.4   9.3 59.3   3.8 9.6   3.1
Jim Davis (Langtry) 9/2/26 0930 61.6   1.2 82   10 56.0   4.7 3.4 S | 172 7.0   1.9 0.00 0.00 53.0   5.4 61.6   1.2 7.0   0.1
Napa Valley Basin 9/2/26 0930 62.5   3.0 80   5 56.2   4.5 5.3 SSW | 201 8.7   6.6 0.00 0.00 49.7   7.3 63.0   2.7 9.6   5.0
Lower Bohn 9/2/26 0930 60.9   0.3 86   18 56.5   6.1 4.4 SSW | 192 10.2   5.6 0.00 0.00 48.8   10.3 61.2   2.3 10.2   5.3
Upper Bohn-North 9/2/26 0930 62.4   1.6 83   11 57.0   5.5 4.4 SSE | 159 9.6   5.5 0.00 0.00 51.4   5.1 62.5   1.6 10.3   6.1
Snell Peak Blk#9 9/2/26 0930 60.3   0.7 84   18 55.5   6.0 4.4 S | 183 8.7   4.8 0.00 0.00 55.2   5.7 60.8   0.2 9.9   5.3
Coyote Lake West 9/2/26 0930 61.1   0.5 83   12 55.9   4.8 4.7 SSE | 158 8.3   5.1 0.00 0.00 52.6   6.1 61.1   0.5 10.0   5.3
Coyote Lake Northeast 9/2/26 0930 62.3   1.4 81   10 56.3   5.0 - - - - - 53.9   5.4 62.3   1.4 -
Coyote Lake East 9/2/26 0930 62.9   1.5 80   8 56.5   4.4 - - - - - 50.7   6.1 62.9   1.5 -
Morgan Valley 9/2/26 0930 54.5   0.7 100   19 54.5   5.1 5.7 SE | 139 10.1   2.9 0.00 0.00 51.6   0.9 54.6   0.7 16.5   3.2
Mine Pit North 9/2/26 0800 55.7   3.5 90   0 52.7   3.5 8.7 S | 189 13.4   1.1 - - 52.2   3.7 56.0   2.1 17.5   4.1
Mine Pit South 9/2/26 0800 55.3   3.3 88   2 51.8   2.5 6.4 SSW | 192 10.4   5.2 0.00 0.00 51.3   1.7 55.5   2.3 14.2   1.9
Cow Mountain 9/2/26 0930 49.6   1.6 - - 8.6 SW | 214 14.7   0.2 0.00 0.06 46.8   0.6 50.6   2.2 18.0   14.2
Ukiah-SE (Ruddick) 9/2/26 0930 59.6   4.4 91   30 57.1   6.5 1.1 ENE | 64 3.2   3.0 0.00 0.07 55.1   3.8 59.9   4.5 4.2   7.5
Max     62.9 100 57.5 8.6 - 14.7 0.01 0.21 55.3 63.0 18.0
Avg     58.6 89 55.7 2.4 - 5.5 0.00 - - - -
Min     49.6 79 53.2 0.0 - 0.0 0.00 0.00 46.8 50.6 2.7